Time;durP1;ratioP1;P1;durP2;ratioP2;P2;SDS_P1;SDS_P2;PMS_P1;PMS_P2;Temp;Humidity;BMP_temperature;BMP_pressure;BME280_temperature;BME280_humidity;BME280_pressure;Samples;Min_cycle;Max_cycle;Signal;HPM_P1;HPM_P2
2021/04/07 00:02:25;;;;;;;4.90;2.13;;;5.00;63.70;;;;;;5084100;28;27467;-53
2021/04/07 00:05:15;;;;;;;4.53;1.60;;;4.90;63.80;;;;;;5083630;28;27438;-55
2021/04/07 00:08:00;;;;;;;2.60;1.83;;;4.90;64.00;;;;;;5083893;28;27398;-55
2021/04/07 00:10:44;;;;;;;2.55;1.88;;;4.90;64.10;;;;;;5084120;28;27402;-55
2021/04/07 00:13:29;;;;;;;3.15;2.08;;;4.80;64.20;;;;;;5083876;28;27383;-52
2021/04/07 00:16:13;;;;;;;2.28;1.73;;;4.80;64.10;;;;;;5083079;28;27416;-54
2021/04/07 00:18:57;;;;;;;2.65;1.83;;;4.80;64.40;;;;;;5080100;28;27404;-57
2021/04/07 00:21:42;;;;;;;4.25;2.00;;;4.80;64.40;;;;;;5083954;28;27419;-56
2021/04/07 00:24:27;;;;;;;2.58;1.80;;;4.70;64.30;;;;;;5080820;28;27470;-49
2021/04/07 00:27:13;;;;;;;4.13;2.15;;;4.70;64.40;;;;;;5079731;28;27404;-53
2021/04/07 00:29:58;;;;;;;3.15;1.85;;;4.70;64.40;;;;;;5080804;28;27540;-57
2021/04/07 00:32:42;;;;;;;3.88;2.20;;;4.70;64.40;;;;;;5083384;28;27418;-57
2021/04/07 00:35:28;;;;;;;4.25;2.08;;;4.60;64.50;;;;;;5080674;28;27451;-57
2021/04/07 00:38:13;;;;;;;2.92;2.38;;;4.60;64.80;;;;;;5083828;28;27472;-55
2021/04/07 00:40:57;;;;;;;3.35;1.88;;;4.60;64.90;;;;;;5083765;28;27545;-57
2021/04/07 00:44:02;;;;;;;2.95;1.85;;;4.60;65.00;;;;;;5083571;28;27486;-50
2021/04/07 00:46:47;;;;;;;5.13;1.92;;;4.60;65.00;;;;;;5083493;28;27419;-56
2021/04/07 00:49:31;;;;;;;3.92;2.00;;;4.60;65.00;;;;;;5085163;28;27454;-57
2021/04/07 00:52:16;;;;;;;2.85;2.00;;;4.60;65.00;;;;;;5082920;28;27477;-54
2021/04/07 00:55:02;;;;;;;2.30;1.60;;;4.50;65.20;;;;;;5087318;28;27467;-56
2021/04/07 00:57:47;;;;;;;3.85;2.28;;;4.50;65.40;;;;;;5087251;28;27469;-57
2021/04/07 01:00:31;;;;;;;3.65;1.98;;;4.50;65.40;;;;;;5085503;28;27611;-50
2021/04/07 01:03:16;;;;;;;2.92;2.08;;;4.50;65.40;;;;;;5087043;28;27519;-54
2021/04/07 01:06:00;;;;;;;4.00;1.95;;;4.50;65.50;;;;;;5068545;28;27487;-57
2021/04/07 01:08:45;;;;;;;4.70;2.67;;;4.50;65.70;;;;;;5083471;28;27403;-57
2021/04/07 01:11:29;;;;;;;2.50;2.00;;;4.50;65.80;;;;;;5082915;28;27498;-55
2021/04/07 01:14:14;;;;;;;2.83;1.80;;;4.40;65.70;;;;;;5083682;28;27471;-56
2021/04/07 01:16:59;;;;;;;4.15;2.00;;;4.40;65.70;;;;;;5071689;28;27494;-57
2021/04/07 01:19:44;;;;;;;2.60;1.65;;;4.40;65.70;;;;;;5082711;28;27392;-57
2021/04/07 01:22:29;;;;;;;4.80;1.95;;;4.40;65.60;;;;;;5086255;28;27986;-56
2021/04/07 01:25:14;;;;;;;3.53;2.05;;;4.40;65.60;;;;;;5086450;28;27434;-56
2021/04/07 01:27:59;;;;;;;2.33;1.90;;;4.40;65.40;;;;;;5086259;28;27434;-57
2021/04/07 01:30:46;;;;;;;2.58;2.25;;;4.40;65.20;;;;;;5068394;28;27409;-57
2021/04/07 01:33:31;;;;;;;4.22;2.13;;;4.40;65.10;;;;;;5086609;28;27848;-49
2021/04/07 01:36:15;;;;;;;3.58;1.90;;;4.40;65.10;;;;;;5086305;28;27493;-56
2021/04/07 01:39:00;;;;;;;8.98;2.15;;;4.30;65.10;;;;;;5086612;28;27423;-57
2021/04/07 01:41:44;;;;;;;2.83;1.88;;;4.30;65.00;;;;;;5086316;28;27395;-57
2021/04/07 01:44:29;;;;;;;4.22;1.92;;;4.30;65.20;;;;;;5082106;28;27487;-56
2021/04/07 01:47:13;;;;;;;5.70;1.83;;;4.20;65.10;;;;;;5088142;28;27423;-56
2021/04/07 01:50:02;;;;;;;1.85;1.50;;;4.20;65.20;;;;;;5091441;28;27531;-56
2021/04/07 01:52:47;;;;;;;2.38;1.70;;;4.20;65.20;;;;;;5088310;28;27415;-56
2021/04/07 01:55:31;;;;;;;2.25;1.77;;;4.20;65.20;;;;;;5106387;28;27396;-56
2021/04/07 01:58:16;;;;;;;3.88;2.15;;;4.10;65.10;;;;;;5106607;28;27431;-55
2021/04/07 02:01:00;;;;;;;4.38;1.63;;;4.10;65.00;;;;;;5102630;28;27510;-53
2021/04/07 02:03:45;;;;;;;1.75;1.60;;;4.10;65.00;;;;;;5103043;28;27470;-56
2021/04/07 02:06:30;;;;;;;3.13;1.75;;;4.10;65.10;;;;;;5103246;28;27462;-55
2021/04/07 02:09:16;;;;;;;2.08;1.70;;;4.10;65.20;;;;;;5106173;28;27450;-56
2021/04/07 02:12:00;;;;;;;1.92;1.50;;;4.10;65.00;;;;;;5102927;28;27415;-57
2021/04/07 02:14:45;;;;;;;2.90;1.90;;;4.10;65.20;;;;;;5106369;28;27463;-56
2021/04/07 02:17:30;;;;;;;6.15;2.00;;;4.00;65.20;;;;;;5106307;28;27445;-55
2021/04/07 02:20:15;;;;;;;2.90;1.88;;;4.00;65.20;;;;;;5106248;28;27470;-56
2021/04/07 02:22:59;;;;;;;2.55;1.58;;;4.00;65.30;;;;;;5105203;28;27428;-55
2021/04/07 02:25:44;;;;;;;2.72;1.83;;;4.00;65.40;;;;;;5106275;28;26933;-57
2021/04/07 02:28:28;;;;;;;2.97;1.63;;;3.90;65.40;;;;;;5106108;28;27416;-56
2021/04/07 02:31:13;;;;;;;3.22;2.08;;;3.90;65.60;;;;;;5106282;28;27599;-55
2021/04/07 02:33:58;;;;;;;2.53;1.80;;;3.80;65.60;;;;;;5106157;28;27413;-56
2021/04/07 02:36:42;;;;;;;1.80;1.65;;;3.80;65.70;;;;;;5087632;28;27463;-55
2021/04/07 02:39:27;;;;;;;3.80;1.73;;;3.80;65.90;;;;;;5105948;28;27399;-50
2021/04/07 02:42:12;;;;;;;2.95;1.88;;;3.80;66.10;;;;;;5105435;28;27573;-52
2021/04/07 02:44:56;;;;;;;3.47;1.70;;;3.70;66.10;;;;;;5102383;28;27423;-55
2021/04/07 02:47:41;;;;;;;2.42;1.73;;;3.80;66.30;;;;;;5105388;28;27380;-56
2021/04/07 02:50:25;;;;;;;4.32;1.83;;;3.70;66.20;;;;;;5105048;28;27636;-56
2021/04/07 02:53:10;;;;;;;5.60;1.75;;;3.80;66.40;;;;;;5102488;28;27392;-57
2021/04/07 02:55:54;;;;;;;3.17;2.05;;;3.70;66.30;;;;;;5090677;28;27379;-56
2021/04/07 02:58:39;;;;;;;3.03;2.15;;;3.80;66.30;;;;;;5105739;28;27382;-54
2021/04/07 03:01:23;;;;;;;4.75;1.80;;;3.80;66.50;;;;;;5102192;28;27951;-56
2021/04/07 03:04:08;;;;;;;3.75;2.47;;;3.80;66.50;;;;;;5105631;28;27474;-55
2021/04/07 03:06:52;;;;;;;7.40;1.80;;;3.80;66.60;;;;;;5090487;28;27424;-57
2021/04/07 03:09:37;;;;;;;5.05;1.58;;;3.80;66.60;;;;;;5087115;28;27477;-55
2021/04/07 03:12:21;;;;;;;3.22;1.90;;;3.80;66.70;;;;;;5104383;28;27990;-57
2021/04/07 03:15:09;;;;;;;5.20;2.10;;;3.80;66.70;;;;;;5105108;28;27416;-56
2021/04/07 03:17:53;;;;;;;3.13;2.30;;;3.80;66.80;;;;;;5103936;28;27438;-56
2021/04/07 03:20:38;;;;;;;3.05;2.08;;;3.80;66.70;;;;;;5086641;28;27452;-53
2021/04/07 03:23:22;;;;;;;2.67;1.95;;;3.80;66.70;;;;;;5104990;28;27448;-57
2021/04/07 03:26:07;;;;;;;4.40;2.08;;;3.80;66.80;;;;;;5101655;28;27482;-53
2021/04/07 03:28:52;;;;;;;2.40;2.17;;;3.80;66.70;;;;;;5105286;28;27421;-56
2021/04/07 03:31:36;;;;;;;3.92;2.90;;;3.80;66.90;;;;;;5086727;28;27463;-55
2021/04/07 03:34:21;;;;;;;3.05;2.10;;;3.80;67.00;;;;;;5104849;28;28046;-55
2021/04/07 03:37:05;;;;;;;2.83;2.10;;;3.80;67.00;;;;;;5105053;28;27497;-54
2021/04/07 03:39:50;;;;;;;5.45;2.38;;;3.80;67.00;;;;;;5105069;28;27345;-56
2021/04/07 03:42:35;;;;;;;5.22;2.58;;;3.80;66.90;;;;;;5104719;28;27390;-52
2021/04/07 03:45:20;;;;;;;2.58;2.03;;;3.80;67.00;;;;;;5104322;28;27958;-56
2021/04/07 03:48:04;;;;;;;3.75;2.30;;;3.80;67.00;;;;;;5104028;28;27486;-54
2021/04/07 03:50:49;;;;;;;3.35;1.83;;;3.80;67.70;;;;;;5086505;28;27496;-56
2021/04/07 03:53:34;;;;;;;3.13;1.80;;;3.80;66.90;;;;;;5104685;28;27437;-55
2021/04/07 03:56:19;;;;;;;4.55;2.30;;;3.80;67.00;;;;;;5089755;28;27990;-55
2021/04/07 03:59:04;;;;;;;3.17;1.98;;;3.80;67.10;;;;;;5104820;28;27494;-55
2021/04/07 04:01:49;;;;;;;3.60;1.98;;;3.90;67.20;;;;;;5104666;28;27416;-56
2021/04/07 04:04:33;;;;;;;2.85;1.88;;;3.90;67.30;;;;;;5104835;28;27407;-56
2021/04/07 04:07:18;;;;;;;4.68;2.80;;;3.90;67.10;;;;;;5104693;28;27358;-56
2021/04/07 04:10:03;;;;;;;3.08;1.88;;;3.90;67.00;;;;;;5104618;28;27369;-56
2021/04/07 04:12:47;;;;;;;2.33;1.58;;;4.00;66.90;;;;;;5104110;28;27331;-56
2021/04/07 04:15:32;;;;;;;3.92;2.05;;;4.00;66.70;;;;;;5104551;28;27394;-54
2021/04/07 04:18:17;;;;;;;3.60;1.77;;;4.00;66.70;;;;;;5100956;28;27948;-52
2021/04/07 04:21:01;;;;;;;3.17;2.25;;;4.00;66.50;;;;;;5100805;28;27354;-53
2021/04/07 04:23:46;;;;;;;3.35;2.38;;;4.10;66.50;;;;;;5086368;28;27364;-54
2021/04/07 04:26:30;;;;;;;3.95;2.08;;;4.10;66.20;;;;;;5108158;28;27395;-54
2021/04/07 04:29:15;;;;;;;4.28;2.30;;;4.10;66.30;;;;;;5107802;28;27380;-53
2021/04/07 04:31:59;;;;;;;5.80;2.30;;;4.10;66.30;;;;;;5104716;28;27514;-54
2021/04/07 04:34:44;;;;;;;3.47;2.00;;;4.10;66.30;;;;;;5108030;28;27368;-54
2021/04/07 04:37:28;;;;;;;3.30;2.00;;;4.10;66.40;;;;;;5107938;28;27439;-53
2021/04/07 04:40:13;;;;;;;2.95;1.90;;;4.10;66.40;;;;;;5089144;28;27424;-53
2021/04/07 04:42:58;;;;;;;4.18;1.98;;;4.10;66.40;;;;;;5107227;28;27482;-54
2021/04/07 04:45:42;;;;;;;2.20;1.73;;;4.10;67.10;;;;;;5107668;28;27452;-53
2021/04/07 04:48:26;;;;;;;3.67;2.22;;;4.10;66.40;;;;;;5107107;27;27324;-55
2021/04/07 04:51:11;;;;;;;3.55;1.70;;;4.10;66.40;;;;;;5107475;28;27469;-52
2021/04/07 04:53:56;;;;;;;4.53;2.15;;;4.10;66.50;;;;;;5107721;28;27415;-53
2021/04/07 04:56:40;;;;;;;2.50;1.90;;;4.10;66.70;;;;;;5107475;28;27501;-52
2021/04/07 04:59:24;;;;;;;3.83;2.10;;;4.10;66.80;;;;;;5107371;28;27403;-48
2021/04/07 05:02:09;;;;;;;3.33;2.13;;;4.00;66.80;;;;;;5107282;28;27462;-53
2021/04/07 05:04:54;;;;;;;3.10;2.03;;;4.00;67.00;;;;;;5107023;28;27454;-52
2021/04/07 05:07:39;;;;;;;5.10;1.92;;;4.00;67.30;;;;;;5107557;28;27501;-53
2021/04/07 05:10:23;;;;;;;3.42;2.03;;;4.00;67.40;;;;;;5088742;28;27301;-52
2021/04/07 05:13:08;;;;;;;2.90;2.05;;;4.00;67.30;;;;;;5107378;28;28022;-54
2021/04/07 05:15:52;;;;;;;3.33;2.20;;;3.90;67.30;;;;;;5107047;28;27414;-54
2021/04/07 05:18:37;;;;;;;2.72;2.25;;;4.00;67.40;;;;;;5092132;28;27384;-52
2021/04/07 05:21:21;;;;;;;3.35;2.65;;;4.00;67.60;;;;;;5107124;28;27364;-54
2021/04/07 05:24:07;;;;;;;6.15;2.97;;;3.90;67.70;;;;;;5091725;28;27872;-52
2021/04/07 05:26:51;;;;;;;4.32;2.95;;;3.90;67.70;;;;;;5106782;28;27359;-54
2021/04/07 05:29:36;;;;;;;3.92;2.90;;;4.00;67.80;;;;;;5106901;28;27423;-53
2021/04/07 05:32:20;;;;;;;7.47;3.50;;;4.00;67.70;;;;;;5088796;28;27332;-53
2021/04/07 05:35:08;;;;;;;7.15;3.10;;;4.00;67.80;;;;;;5106645;27;27373;-50
2021/04/07 05:37:53;;;;;;;6.90;2.83;;;4.00;67.80;;;;;;5106777;28;27331;-47
2021/04/07 05:40:37;;;;;;;5.70;2.45;;;4.00;67.80;;;;;;5106799;28;27364;-54
2021/04/07 05:43:24;;;;;;;6.70;2.67;;;4.00;67.70;;;;;;5091894;28;27344;-57
2021/04/07 05:46:09;;;;;;;7.70;3.33;;;4.10;67.80;;;;;;5088388;28;27325;-58
2021/04/07 05:48:54;;;;;;;6.00;3.00;;;4.10;67.50;;;;;;5105266;28;27447;-57
2021/04/07 05:51:38;;;;;;;5.63;2.85;;;4.20;67.60;;;;;;5106530;28;27411;-57
2021/04/07 05:54:22;;;;;;;7.95;3.17;;;4.20;67.00;;;;;;5106491;28;27397;-57
2021/04/07 05:57:07;;;;;;;10.85;2.90;;;4.30;66.90;;;;;;5106369;28;27341;-56
2021/04/07 05:59:51;;;;;;;8.52;2.75;;;4.30;66.60;;;;;;5106340;28;27337;-57
2021/04/07 06:02:36;;;;;;;8.38;2.97;;;4.40;66.50;;;;;;5106348;28;27379;-56
2021/04/07 06:05:21;;;;;;;8.60;4.13;;;4.50;66.30;;;;;;5088133;28;27415;-57
2021/04/07 06:08:06;;;;;;;4.78;2.40;;;4.50;66.40;;;;;;5102499;28;27957;-55
2021/04/07 06:10:51;;;;;;;8.18;2.72;;;4.60;66.10;;;;;;5106173;28;27356;-58
2021/04/07 06:13:35;;;;;;;5.88;2.38;;;4.70;65.90;;;;;;5106197;28;27368;-56
2021/04/07 06:16:20;;;;;;;4.53;2.35;;;4.80;65.40;;;;;;5106417;28;27365;-57
2021/04/07 06:19:04;;;;;;;4.78;2.10;;;4.80;65.00;;;;;;5106030;28;27380;-57
2021/04/07 06:21:49;;;;;;;5.10;2.50;;;4.80;64.70;;;;;;5106103;28;27427;-57
2021/04/07 06:24:33;;;;;;;4.18;2.13;;;4.90;64.10;;;;;;5106312;28;27445;-51
2021/04/07 06:27:17;;;;;;;3.13;2.30;;;5.00;63.60;;;;;;5105782;28;27412;-57
2021/04/07 06:30:02;;;;;;;5.43;2.60;;;5.20;63.30;;;;;;5106117;28;27988;-57
2021/04/07 06:32:47;;;;;;;5.65;2.47;;;5.20;63.10;;;;;;5090617;28;27436;-57
2021/04/07 06:35:31;;;;;;;8.10;2.50;;;5.30;63.20;;;;;;5106193;28;27441;-56
2021/04/07 06:38:16;;;;;;;3.83;2.35;;;5.30;62.70;;;;;;5105742;28;27449;-57
2021/04/07 06:41:01;;;;;;;5.65;2.70;;;5.30;62.50;;;;;;5102619;28;27438;-57
2021/04/07 06:43:46;;;;;;;4.25;2.40;;;5.40;62.30;;;;;;5105918;28;27637;-57
2021/04/07 06:46:30;;;;;;;5.47;2.80;;;5.40;61.90;;;;;;5090839;27;27437;-57
2021/04/07 06:49:14;;;;;;;6.18;2.20;;;5.50;62.00;;;;;;5083535;28;27526;-56
2021/04/07 06:52:03;;;;;;;4.55;2.38;;;5.50;62.10;;;;;;5084323;28;27873;-56
2021/04/07 06:54:51;;;;;;;3.42;1.83;;;5.50;61.90;;;;;;5083226;28;27459;-57
2021/04/07 06:57:35;;;;;;;6.97;2.40;;;5.60;61.60;;;;;;5084380;28;27410;-57
2021/04/07 07:00:20;;;;;;;7.25;2.20;;;5.80;61.50;;;;;;5084786;28;27383;-51
2021/04/07 07:03:18;;;;;;;2.38;1.63;;;5.90;61.40;;;;;;5084652;28;27969;-57
2021/04/07 07:06:03;;;;;;;4.60;2.10;;;6.20;60.90;;;;;;5084656;28;27394;-50
2021/04/07 07:08:48;;;;;;;3.92;2.08;;;6.70;59.70;;;;;;5084160;28;27410;-53
2021/04/07 07:11:35;;;;;;;4.45;1.85;;;6.90;59.60;;;;;;5084974;28;27386;-54
2021/04/07 07:14:20;;;;;;;5.10;2.00;;;7.30;59.00;;;;;;5084952;28;27474;-54
2021/04/07 07:17:04;;;;;;;4.55;2.40;;;7.70;57.90;;;;;;5084349;28;27496;-52
2021/04/07 07:19:49;;;;;;;4.35;2.00;;;7.60;57.60;;;;;;5084529;28;27460;-56
2021/04/07 07:22:33;;;;;;;4.22;1.70;;;7.60;58.20;;;;;;5083927;28;27441;-55
2021/04/07 07:25:18;;;;;;;4.25;1.92;;;7.50;58.60;;;;;;5084608;28;27334;-55
2021/04/07 07:28:06;;;;;;;8.85;2.00;;;7.30;60.00;;;;;;5084618;28;27352;-50
2021/04/07 07:30:50;;;;;;;6.07;2.30;;;7.10;60.50;;;;;;5083542;28;27475;-51
2021/04/07 07:33:40;;;;;;;5.90;2.05;;;7.10;60.70;;;;;;5083812;28;27423;-52
2021/04/07 07:36:25;;;;;;;3.50;1.90;;;7.10;60.40;;;;;;5083546;28;27336;-50
2021/04/07 07:39:10;;;;;;;5.00;1.70;;;7.00;61.20;;;;;;5083430;28;27336;-56
2021/04/07 07:42:00;;;;;;;3.05;1.70;;;6.90;61.40;;;;;;5080222;28;26968;-55
2021/04/07 07:44:45;;;;;;;2.42;1.70;;;6.90;61.40;;;;;;5084113;28;27402;-55
2021/04/07 07:47:34;;;;;;;4.38;1.33;;;6.90;60.90;;;;;;5088201;28;27404;-55
2021/04/07 07:50:18;;;;;;;6.13;1.55;;;6.90;59.70;;;;;;5104045;28;27447;-55
2021/04/07 07:53:17;;;;;;;4.22;1.98;;;6.90;59.80;;;;;;5104493;28;27480;-55
2021/04/07 07:56:01;;;;;;;4.63;1.60;;;7.00;59.40;;;;;;5104590;28;27293;-55
2021/04/07 07:58:51;;;;;;;7.57;1.77;;;7.10;59.10;;;;;;5088612;28;27993;-55
2021/04/07 08:01:46;;;;;;;2.72;1.33;;;7.10;58.50;;;;;;5089180;28;27487;-55
2021/04/07 08:04:30;;;;;;;3.55;1.50;;;7.20;58.00;;;;;;5104284;28;27408;-48
2021/04/07 08:07:15;;;;;;;3.53;1.42;;;7.20;57.60;;;;;;5104201;28;27478;-53
2021/04/07 08:09:59;;;;;;;5.72;1.20;;;7.10;58.10;;;;;;5086040;28;27412;-54
2021/04/07 08:12:44;;;;;;;3.53;1.40;;;7.10;58.10;;;;;;5104062;28;27443;-49
2021/04/07 08:15:30;;;;;;;2.65;1.10;;;7.10;57.50;;;;;;5104432;28;27357;-55
2021/04/07 08:18:15;;;;;;;2.85;1.33;;;7.10;57.50;;;;;;5103627;28;27412;-53
2021/04/07 08:21:00;;;;;;;5.13;1.30;;;7.10;57.70;;;;;;5085630;28;27474;-53
2021/04/07 08:23:45;;;;;;;2.55;1.30;;;7.20;57.20;;;;;;5104207;28;27478;-50
2021/04/07 08:26:31;;;;;;;2.13;1.50;;;7.40;56.70;;;;;;5089184;28;26944;-55
2021/04/07 08:29:16;;;;;;;2.88;1.23;;;7.50;56.40;;;;;;5104176;28;27462;-55
2021/04/07 08:32:00;;;;;;;4.75;1.60;;;7.70;56.30;;;;;;5085359;28;27423;-55
2021/04/07 08:34:45;;;;;;;4.45;1.67;;;7.80;56.70;;;;;;5088980;28;27461;-53
2021/04/07 08:37:32;;;;;;;3.85;0.98;;;7.90;56.70;;;;;;5104079;28;27470;-50
2021/04/07 08:40:17;;;;;;;3.47;1.25;;;7.90;57.10;;;;;;5104245;28;27494;-56
2021/04/07 08:43:02;;;;;;;3.15;1.40;;;8.10;56.40;;;;;;5103653;28;27466;-48
2021/04/07 08:45:47;;;;;;;2.47;1.38;;;8.40;55.40;;;;;;5103756;28;27522;-53
2021/04/07 08:48:34;;;;;;;3.50;1.45;;;8.80;54.70;;;;;;5082252;28;27618;-53
2021/04/07 08:51:21;;;;;;;3.63;1.85;;;9.00;54.70;;;;;;5083817;28;27448;-56
2021/04/07 08:54:06;;;;;;;2.08;1.23;;;9.20;54.20;;;;;;5083693;28;27994;-56
2021/04/07 08:56:56;;;;;;;4.90;1.20;;;9.40;54.70;;;;;;5082547;28;27419;-55
2021/04/07 08:59:47;;;;;;;3.42;1.50;;;9.40;54.10;;;;;;5083307;28;27461;-53
2021/04/07 09:02:31;;;;;;;3.33;1.30;;;9.30;54.30;;;;;;5082170;28;27357;-55
2021/04/07 09:05:16;;;;;;;2.45;1.35;;;9.20;54.40;;;;;;5083046;28;27324;-56
2021/04/07 09:08:01;;;;;;;3.83;1.23;;;9.10;54.80;;;;;;5082225;28;27401;-54
2021/04/07 09:10:58;;;;;;;4.57;1.23;;;9.00;55.30;;;;;;5083877;28;27411;-55
2021/04/07 09:13:42;;;;;;;4.55;1.30;;;8.90;55.20;;;;;;5085851;28;27352;-55
2021/04/07 09:17:00;;;;;;;4.35;1.20;;;8.90;55.00;;;;;;5086615;28;27952;-49
2021/04/07 09:19:48;;;;;;;1.70;1.10;;;8.80;54.70;;;;;;5082578;28;27623;-56
2021/04/07 09:22:33;;;;;;;1.90;1.38;;;8.80;54.60;;;;;;5068602;28;27390;-56
2021/04/07 09:25:21;;;;;;;3.25;1.10;;;8.80;54.30;;;;;;5085835;28;27454;-57
2021/04/07 09:28:08;;;;;;;7.38;1.70;;;8.90;54.40;;;;;;5085532;28;27356;-55
2021/04/07 09:30:53;;;;;;;4.47;1.40;;;9.00;50.70;;;;;;5086481;28;27375;-55
2021/04/07 09:33:39;;;;;;;11.18;1.75;;;9.30;51.60;;;;;;5081489;28;26932;-54
2021/04/07 09:36:37;;;;;;;4.47;1.50;;;9.60;52.30;;;;;;5082733;28;27134;-54
2021/04/07 09:39:23;;;;;;;5.05;1.70;;;9.80;51.80;;;;;;5085192;28;27596;-56
2021/04/07 09:42:09;;;;;;;2.25;1.35;;;10.00;52.00;;;;;;5085861;28;27436;-51
2021/04/07 09:44:53;;;;;;;2.50;1.63;;;10.10;52.10;;;;;;5086274;28;27457;-55
2021/04/07 09:47:38;;;;;;;5.90;1.20;;;10.10;51.90;;;;;;5091746;28;27398;-56
2021/04/07 09:50:29;;;;;;;2.47;0.98;;;10.20;52.00;;;;;;5073938;28;27446;-56
2021/04/07 09:53:27;;;;;;;4.90;1.30;;;10.20;51.90;;;;;;5106464;28;27479;-56
2021/04/07 09:56:12;;;;;;;2.67;1.48;;;10.20;51.40;;;;;;5106413;28;27415;-56
2021/04/07 09:58:56;;;;;;;1.95;1.55;;;10.30;51.00;;;;;;5106193;28;27486;-56
2021/04/07 10:01:41;;;;;;;3.60;1.50;;;10.30;51.10;;;;;;5059316;28;27417;-56
2021/04/07 10:04:27;;;;;;;2.00;1.45;;;10.30;50.90;;;;;;5106098;28;27424;-57
2021/04/07 10:07:19;;;;;;;4.68;1.70;;;10.20;51.10;;;;;;5105791;28;27433;-56
2021/04/07 10:10:06;;;;;;;6.47;1.48;;;10.10;50.90;;;;;;5106316;28;27314;-56
2021/04/07 10:12:51;;;;;;;5.20;1.48;;;10.10;50.90;;;;;;5091342;28;27396;-56
2021/04/07 10:15:37;;;;;;;1.92;1.38;;;10.00;50.50;;;;;;5091035;28;27415;-57
2021/04/07 10:18:21;;;;;;;3.63;1.27;;;9.90;50.20;;;;;;5073611;28;27424;-56
2021/04/07 10:21:14;;;;;;;2.08;1.33;;;9.90;50.70;;;;;;5076402;28;27405;-56
2021/04/07 10:24:00;;;;;;;3.22;1.60;;;9.80;50.80;;;;;;5090927;28;27885;-56
2021/04/07 10:26:44;;;;;;;2.50;1.30;;;9.80;50.50;;;;;;5059121;28;27455;-56
2021/04/07 10:29:30;;;;;;;6.30;1.33;;;9.80;50.60;;;;;;5106215;28;27320;-56
2021/04/07 10:32:16;;;;;;;3.17;1.52;;;9.80;50.50;;;;;;5105728;28;27455;-56
2021/04/07 10:35:00;;;;;;;3.50;1.40;;;9.80;49.90;;;;;;5103686;28;27490;-56
2021/04/07 10:37:55;;;;;;;3.22;1.50;;;9.90;50.20;;;;;;5105826;28;27467;-56
2021/04/07 10:40:41;;;;;;;2.95;1.58;;;10.00;51.10;;;;;;5105898;28;27454;-56
2021/04/07 10:43:32;;;;;;;2.22;1.40;;;10.10;50.50;;;;;;5105370;28;27406;-56
2021/04/07 10:46:21;;;;;;;3.45;1.50;;;10.10;50.00;;;;;;5090339;28;27335;-56
2021/04/07 10:49:06;;;;;;;3.05;1.65;;;10.10;50.10;;;;;;5069807;28;27494;-56
2021/04/07 10:52:01;;;;;;;4.20;1.60;;;10.20;50.60;;;;;;5066733;28;27487;-57
2021/04/07 10:54:55;;;;;;;4.22;1.58;;;10.40;50.90;;;;;;5080945;28;27378;-57
2021/04/07 10:57:42;;;;;;;3.72;1.80;;;10.60;50.60;;;;;;5084864;28;27532;-57
2021/04/07 11:00:35;;;;;;;3.88;1.40;;;10.80;49.90;;;;;;5084741;28;27530;-57
2021/04/07 11:03:33;;;;;;;2.55;1.70;;;11.10;50.20;;;;;;5084006;28;27620;-56
2021/04/07 11:06:21;;;;;;;4.53;1.90;;;11.30;49.90;;;;;;5084844;28;27441;-57
2021/04/07 11:09:06;;;;;;;6.78;2.60;;;11.50;49.30;;;;;;5085573;28;27856;-57
2021/04/07 11:11:50;;;;;;;5.68;1.70;;;11.70;49.40;;;;;;5085909;28;26937;-57
2021/04/07 11:14:37;;;;;;;2.78;1.35;;;11.70;49.10;;;;;;5084305;28;27341;-57
2021/04/07 11:17:21;;;;;;;1.92;1.20;;;11.70;48.80;;;;;;5066660;28;27377;-57
2021/04/07 11:20:06;;;;;;;3.95;1.90;;;11.60;49.00;;;;;;5084788;28;28011;-55
2021/04/07 11:22:51;;;;;;;3.30;1.70;;;11.60;48.80;;;;;;5080830;28;27383;-57
2021/04/07 11:25:35;;;;;;;4.90;2.13;;;11.60;49.20;;;;;;5083653;28;27439;-57
2021/04/07 11:28:20;;;;;;;5.40;1.80;;;11.70;49.70;;;;;;5084422;28;27390;-57
2021/04/07 11:31:10;;;;;;;3.63;1.80;;;11.70;48.60;;;;;;5081040;28;27961;-57
2021/04/07 11:34:09;;;;;;;3.75;1.45;;;11.70;48.40;;;;;;5083653;28;27503;-57
2021/04/07 11:39:59;;;;;;;6.28;2.47;;;11.70;47.60;;;;;;5084117;28;27383;-57
2021/04/07 11:42:55;;;;;;;2.83;1.13;;;11.70;47.00;;;;;;5084142;28;27464;-57
2021/04/07 11:45:39;;;;;;;3.80;1.48;;;11.70;47.30;;;;;;5084605;28;27407;-57
2021/04/07 11:48:23;;;;;;;3.00;1.88;;;11.70;47.30;;;;;;5095919;28;27359;-53
2021/04/07 11:51:08;;;;;;;3.95;1.27;;;11.60;47.60;;;;;;5104662;28;27467;-55
2021/04/07 11:53:52;;;;;;;3.15;1.65;;;11.50;47.60;;;;;;5104472;28;27481;-57
2021/04/07 11:56:45;;;;;;;2.25;1.20;;;11.40;47.90;;;;;;5104253;28;27460;-56
2021/04/07 11:59:29;;;;;;;4.38;1.52;;;11.40;48.40;;;;;;5104810;28;27412;-57
2021/04/07 12:02:14;;;;;;;4.25;1.50;;;11.50;48.50;;;;;;5104476;28;27482;-57
2021/04/07 12:04:59;;;;;;;5.38;1.33;;;11.60;47.90;;;;;;5086037;28;27368;-57
2021/04/07 12:07:44;;;;;;;2.35;1.20;;;11.60;47.10;;;;;;5104331;28;27627;-57
2021/04/07 12:10:29;;;;;;;3.63;1.40;;;11.60;46.80;;;;;;5085797;28;27398;-57
2021/04/07 12:13:14;;;;;;;3.75;1.10;;;11.60;47.10;;;;;;5104453;28;27372;-57
2021/04/07 12:15:58;;;;;;;5.30;1.70;;;11.70;47.50;;;;;;5104327;28;27395;-57
2021/04/07 12:18:42;;;;;;;3.78;1.08;;;11.60;47.00;;;;;;5104438;28;27384;-57
2021/04/07 12:21:27;;;;;;;6.60;1.50;;;11.50;46.60;;;;;;5104404;28;27386;-57
2021/04/07 12:24:11;;;;;;;1.80;1.10;;;11.50;46.50;;;;;;5104374;28;27385;-57
2021/04/07 12:26:56;;;;;;;2.72;1.20;;;11.40;46.40;;;;;;5088284;28;27832;-57
2021/04/07 12:29:40;;;;;;;4.55;2.50;;;11.30;46.60;;;;;;5088933;28;27421;-57
2021/04/07 12:32:25;;;;;;;2.88;1.42;;;11.20;46.80;;;;;;5104321;28;27355;-57
2021/04/07 12:35:11;;;;;;;3.40;1.30;;;11.10;46.10;;;;;;5104262;28;27333;-57
2021/04/07 12:37:56;;;;;;;2.88;1.30;;;11.00;46.30;;;;;;5104209;28;27335;-57
2021/04/07 12:40:44;;;;;;;3.20;1.25;;;10.80;45.10;;;;;;5104106;28;27390;-56
2021/04/07 12:43:28;;;;;;;3.10;1.70;;;10.70;46.10;;;;;;5103469;28;27426;-56
2021/04/07 12:46:13;;;;;;;6.40;1.98;;;10.60;46.10;;;;;;5102879;27;27375;-56
2021/04/07 12:48:57;;;;;;;5.07;2.70;;;10.60;46.40;;;;;;5106727;28;27837;-56
2021/04/07 12:51:42;;;;;;;10.48;3.58;;;10.50;46.30;;;;;;5104074;28;27371;-56
2021/04/07 12:54:27;;;;;;;6.65;2.90;;;10.40;46.40;;;;;;5107410;28;27343;-55
2021/04/07 12:57:11;;;;;;;10.65;2.85;;;10.30;47.10;;;;;;5107574;28;27324;-56
2021/04/07 12:59:56;;;;;;;6.70;2.20;;;10.20;47.30;;;;;;5107361;28;27431;-57
2021/04/07 13:02:40;;;;;;;5.03;1.83;;;10.20;47.10;;;;;;5107222;28;27417;-57
2021/04/07 13:05:25;;;;;;;3.75;2.63;;;10.10;47.10;;;;;;5107425;28;27313;-51
2021/04/07 13:08:09;;;;;;;2.83;1.88;;;10.10;47.70;;;;;;5107495;28;27466;-57
2021/04/07 13:10:54;;;;;;;5.65;1.52;;;10.10;47.60;;;;;;5107241;28;27844;-57
2021/04/07 13:13:38;;;;;;;5.53;2.20;;;10.10;47.90;;;;;;5107236;28;27471;-57
2021/04/07 13:16:23;;;;;;;7.80;1.60;;;10.10;47.90;;;;;;5107269;28;27450;-57
2021/04/07 13:19:11;;;;;;;3.83;1.92;;;10.10;47.30;;;;;;5107136;28;27408;-51
2021/04/07 13:21:55;;;;;;;7.90;1.85;;;10.00;47.10;;;;;;5106130;28;27954;-57
2021/04/07 13:24:40;;;;;;;37.85;16.40;;;10.00;47.20;;;;;;5106918;28;27428;-58
2021/04/07 13:27:24;;;;;;;29.35;11.93;;;9.90;47.90;;;;;;5103907;28;27383;-57
2021/04/07 13:30:11;;;;;;;22.13;9.55;;;9.90;48.20;;;;;;5106913;28;27403;-57
2021/04/07 13:33:11;;;;;;;19.98;6.90;;;9.90;47.90;;;;;;5106552;28;27402;-57
2021/04/07 13:36:02;;;;;;;14.55;6.63;;;9.90;48.40;;;;;;5106495;28;27458;-58
2021/04/07 13:44:34;;;;;;;14.75;7.20;;;9.80;46.70;;;;;;5106737;28;27475;-57
2021/04/07 13:47:22;;;;;;;9.45;4.07;;;9.80;46.80;;;;;;5105721;28;27435;-57
2021/04/07 13:50:07;;;;;;;7.60;3.67;;;9.70;46.80;;;;;;5106635;28;27333;-56
2021/04/07 13:52:53;;;;;;;6.25;3.00;;;9.70;46.60;;;;;;5106590;28;27370;-57
2021/04/07 13:55:39;;;;;;;7.32;3.00;;;9.70;47.10;;;;;;5091425;28;27376;-57
2021/04/07 13:58:24;;;;;;;5.03;3.13;;;9.70;47.10;;;;;;5105205;28;27341;-57
2021/04/07 14:01:09;;;;;;;5.97;2.30;;;9.60;47.10;;;;;;5106421;28;27428;-57
2021/04/07 14:03:53;;;;;;;4.55;2.47;;;9.60;46.90;;;;;;5106287;28;27305;-58
2021/04/07 14:06:38;;;;;;;4.95;1.88;;;9.60;47.70;;;;;;5106264;28;27861;-57
2021/04/07 14:09:23;;;;;;;3.03;1.80;;;9.60;46.90;;;;;;5087691;28;27412;-57
2021/04/07 14:12:07;;;;;;;4.30;1.60;;;9.60;46.90;;;;;;5106246;28;27406;-57
2021/04/07 14:14:52;;;;;;;2.92;1.52;;;9.60;46.70;;;;;;5105759;28;27375;-58
2021/04/07 14:17:37;;;;;;;3.03;1.70;;;9.50;47.50;;;;;;5106207;28;27414;-57
2021/04/07 14:20:21;;;;;;;4.30;1.60;;;9.40;47.50;;;;;;5105882;28;27410;-57
2021/04/07 14:23:06;;;;;;;5.18;1.50;;;9.40;47.80;;;;;;5102480;28;27408;-57
2021/04/07 14:25:51;;;;;;;4.05;1.45;;;9.40;47.90;;;;;;5102768;28;27359;-58
2021/04/07 14:28:36;;;;;;;3.30;1.50;;;9.30;47.90;;;;;;5105582;28;27340;-58
2021/04/07 14:31:20;;;;;;;3.63;1.65;;;9.30;48.80;;;;;;5106090;28;27471;-57
2021/04/07 14:34:05;;;;;;;7.05;1.70;;;9.20;48.60;;;;;;5090611;28;27336;-57
2021/04/07 14:36:50;;;;;;;3.10;1.15;;;9.20;48.70;;;;;;5087072;28;27336;-57
2021/04/07 14:39:35;;;;;;;3.63;1.42;;;9.20;48.60;;;;;;5105586;28;27869;-51
2021/04/07 14:42:21;;;;;;;3.35;1.23;;;9.30;48.50;;;;;;5102600;28;27480;-55